GFA4T OKKK-OBBI
Flight info
| Callsign | GFA4T |
|---|---|
| Flight time | 0h 48m |
| Altitude | 29000 |
| Route | BOXIK B416 IMDOX P975 LONOS L703 KOBOK |
| Aircraft | A20N/M-SDE2E3FGHIRWXY/LB1 |
Departure
| Time | 2026-05-04 17:02 |
|---|---|
| Airport | Kuwait International Airport (OKKK) |
Arrival
| Time | 2026-05-04 17:50 |
|---|---|
| Airport | Bahrain International Airport (OBBI) |
| Time | Latitude | Longitude | Altitude | Speed | Heading |
|---|---|---|---|---|---|
| 2026-05-04 16:39 | 29.23809 | 47.97302 | 166 ft | 0 kts | 263° |
| 2026-05-04 16:40 | 29.23993 | 47.97281 | 166 ft | 0 kts | 264° |
| 2026-05-04 16:50 | 29.23997 | 47.97305 | 159 ft | 2 kts | 251° |
| 2026-05-04 16:51 | 29.24016 | 47.97313 | 159 ft | 1 kts | 151° |
| 2026-05-04 16:51 | 29.24017 | 47.97312 | 159 ft | 0 kts | 151° |
| 2026-05-04 16:53 | 29.24016 | 47.97313 | 159 ft | 0 kts | 151° |
| 2026-05-04 16:54 | 29.23997 | 47.97325 | 159 ft | 8 kts | 152° |
| 2026-05-04 16:55 | 29.23636 | 47.97394 | 160 ft | 18 kts | 248° |
| 2026-05-04 16:55 | 29.23575 | 47.97232 | 157 ft | 27 kts | 246° |
| 2026-05-04 16:56 | 29.23526 | 47.96792 | 153 ft | 20 kts | 281° |
| 2026-05-04 16:56 | 29.23733 | 47.96568 | 152 ft | 22 kts | 336° |
| 2026-05-04 16:57 | 29.23767 | 47.96552 | 151 ft | 7 kts | 338° |
| 2026-05-04 16:57 | 29.24012 | 47.96416 | 148 ft | 30 kts | 336° |
| 2026-05-04 16:58 | 29.24154 | 47.96272 | 150 ft | 7 kts | 242° |
| 2026-05-04 16:58 | 29.24142 | 47.96244 | 153 ft | 0 kts | 245° |
| 2026-05-04 17:01 | 29.24089 | 47.96190 | 164 ft | 19 kts | 194° |
| 2026-05-04 17:01 | 29.23937 | 47.96218 | 165 ft | 25 kts | 156° |
| 2026-05-04 17:02 | 29.22849 | 47.96794 | 175 ft | 143 kts | 154° |
| 2026-05-04 17:02 | 29.20798 | 47.97849 | 1507 ft | 163 kts | 153° |
| 2026-05-04 17:03 | 29.19763 | 47.98414 | 2338 ft | 171 kts | 153° |
| 2026-05-04 17:03 | 29.18640 | 47.99045 | 2918 ft | 188 kts | 149° |
| 2026-05-04 17:03 | 29.17089 | 48.01724 | 3946 ft | 226 kts | 102° |
| 2026-05-04 17:04 | 29.16640 | 48.05642 | 4959 ft | 272 kts | 92° |
| 2026-05-04 17:04 | 29.16476 | 48.10160 | 6265 ft | 289 kts | 92° |
| 2026-05-04 17:05 | 29.16248 | 48.14838 | 7174 ft | 299 kts | 94° |
| 2026-05-04 17:05 | 29.15974 | 48.19626 | 7793 ft | 304 kts | 94° |
| 2026-05-04 17:06 | 29.15691 | 48.24408 | 7782 ft | 301 kts | 94° |
| 2026-05-04 17:06 | 29.15550 | 48.26798 | 7780 ft | 302 kts | 94° |
| 2026-05-04 17:07 | 29.15266 | 48.31584 | 7786 ft | 301 kts | 95° |
| 2026-05-04 17:07 | 29.15038 | 48.33146 | 7785 ft | 302 kts | 108° |
| 2026-05-04 17:07 | 29.13700 | 48.35961 | 8300 ft | 304 kts | 127° |
| 2026-05-04 17:07 | 29.12495 | 48.37943 | 9173 ft | 305 kts | 127° |
| 2026-05-04 17:08 | 29.11279 | 48.39951 | 9930 ft | 310 kts | 127° |
| 2026-05-04 17:08 | 29.08629 | 48.44252 | 10487 ft | 353 kts | 128° |
| 2026-05-04 17:08 | 29.07173 | 48.46589 | 10916 ft | 366 kts | 128° |
| 2026-05-04 17:09 | 29.05687 | 48.48975 | 11589 ft | 371 kts | 128° |
| 2026-05-04 17:09 | 29.04180 | 48.51395 | 12254 ft | 377 kts | 128° |
| 2026-05-04 17:09 | 29.02648 | 48.53852 | 12942 ft | 382 kts | 129° |
| 2026-05-04 17:10 | 28.99509 | 48.58875 | 14231 ft | 392 kts | 129° |
| 2026-05-04 17:10 | 28.94690 | 48.66570 | 16198 ft | 402 kts | 128° |
| 2026-05-04 17:11 | 28.93058 | 48.69173 | 16829 ft | 406 kts | 128° |
| 2026-05-04 17:11 | 28.91406 | 48.71805 | 17454 ft | 409 kts | 128° |
| 2026-05-04 17:11 | 28.88065 | 48.77126 | 18620 ft | 415 kts | 128° |
| 2026-05-04 17:12 | 28.86368 | 48.79826 | 19037 ft | 421 kts | 128° |
| 2026-05-04 17:12 | 28.82934 | 48.85282 | 20074 ft | 427 kts | 129° |
| 2026-05-04 17:13 | 28.77683 | 48.93614 | 21637 ft | 436 kts | 129° |
| 2026-05-04 17:14 | 28.72317 | 49.02109 | 23153 ft | 445 kts | 129° |
| 2026-05-04 17:14 | 28.70497 | 49.04987 | 23615 ft | 448 kts | 129° |
| 2026-05-04 17:14 | 28.66854 | 49.10741 | 24413 ft | 455 kts | 129° |
| 2026-05-04 17:15 | 28.65001 | 49.13665 | 24686 ft | 458 kts | 129° |
| 2026-05-04 17:15 | 28.61266 | 49.19554 | 24789 ft | 458 kts | 129° |
| 2026-05-04 17:16 | 28.56962 | 49.24758 | 24790 ft | 448 kts | 148° |
| 2026-05-04 17:16 | 28.49097 | 49.30324 | 24787 ft | 449 kts | 145° |
| 2026-05-04 17:17 | 28.46732 | 49.32660 | 24785 ft | 451 kts | 143° |
| 2026-05-04 17:17 | 28.39665 | 49.39704 | 24790 ft | 451 kts | 143° |
| 2026-05-04 17:18 | 28.37302 | 49.42047 | 24788 ft | 451 kts | 143° |
| 2026-05-04 17:18 | 28.32579 | 49.46726 | 24789 ft | 451 kts | 143° |
| 2026-05-04 17:19 | 28.27845 | 49.51405 | 24789 ft | 451 kts | 143° |
| 2026-05-04 17:19 | 28.23112 | 49.56069 | 24790 ft | 451 kts | 143° |
| 2026-05-04 17:20 | 28.18203 | 49.60455 | 24790 ft | 449 kts | 147° |
| 2026-05-04 17:20 | 28.13229 | 49.64729 | 24791 ft | 449 kts | 147° |
| 2026-05-04 17:20 | 28.10745 | 49.66864 | 24788 ft | 449 kts | 147° |
| 2026-05-04 17:21 | 28.05770 | 49.71137 | 24788 ft | 449 kts | 147° |
| 2026-05-04 17:21 | 28.00715 | 49.75256 | 24789 ft | 447 kts | 150° |
| 2026-05-04 17:22 | 27.98138 | 49.77222 | 24788 ft | 447 kts | 150° |
| 2026-05-04 17:22 | 27.95561 | 49.79188 | 24792 ft | 447 kts | 150° |
| 2026-05-04 17:23 | 27.87862 | 49.85130 | 24794 ft | 447 kts | 150° |
| 2026-05-04 17:23 | 27.85295 | 49.87121 | 24793 ft | 447 kts | 150° |
| 2026-05-04 17:23 | 27.80165 | 49.91098 | 24793 ft | 447 kts | 150° |
| 2026-05-04 17:24 | 27.77597 | 49.93086 | 24792 ft | 447 kts | 150° |
| 2026-05-04 17:24 | 27.69896 | 49.99041 | 24793 ft | 448 kts | 150° |
| 2026-05-04 17:25 | 27.67357 | 50.01001 | 24748 ft | 448 kts | 150° |
| 2026-05-04 17:25 | 27.62195 | 50.04985 | 24296 ft | 444 kts | 149° |
| 2026-05-04 17:26 | 27.57125 | 50.08892 | 23788 ft | 439 kts | 149° |
| 2026-05-04 17:26 | 27.49577 | 50.14698 | 23078 ft | 435 kts | 149° |
| 2026-05-04 17:27 | 27.44627 | 50.18503 | 22556 ft | 432 kts | 149° |
| 2026-05-04 17:27 | 27.39746 | 50.22414 | 22062 ft | 429 kts | 147° |
| 2026-05-04 17:28 | 27.34924 | 50.26363 | 21995 ft | 429 kts | 147° |
| 2026-05-04 17:29 | 27.27668 | 50.32250 | 21995 ft | 429 kts | 147° |
| 2026-05-04 17:29 | 27.20408 | 50.38116 | 21977 ft | 428 kts | 147° |
| 2026-05-04 17:30 | 27.13176 | 50.43948 | 20270 ft | 430 kts | 147° |
| 2026-05-04 17:31 | 27.08361 | 50.47881 | 19253 ft | 419 kts | 141° |
| 2026-05-04 17:31 | 27.04555 | 50.56199 | 18016 ft | 403 kts | 103° |
| 2026-05-04 17:32 | 27.03303 | 50.62343 | 17200 ft | 415 kts | 103° |
| 2026-05-04 17:33 | 27.01403 | 50.71558 | 16593 ft | 393 kts | 103° |
| 2026-05-04 17:33 | 27.00783 | 50.74529 | 16094 ft | 389 kts | 103° |
| 2026-05-04 17:34 | 26.98905 | 50.83270 | 14595 ft | 380 kts | 103° |
| 2026-05-04 17:34 | 26.98240 | 50.86124 | 14097 ft | 377 kts | 108° |
| 2026-05-04 17:35 | 26.94142 | 50.93552 | 12471 ft | 372 kts | 123° |
| 2026-05-04 17:35 | 26.90672 | 50.97712 | 12004 ft | 373 kts | 151° |
| 2026-05-04 17:35 | 26.88247 | 50.98689 | 11994 ft | 371 kts | 172° |
| 2026-05-04 17:36 | 26.85688 | 50.98691 | 11997 ft | 367 kts | 189° |
| 2026-05-04 17:36 | 26.83161 | 50.98280 | 11996 ft | 368 kts | 191° |
| 2026-05-04 17:36 | 26.80635 | 50.97839 | 11984 ft | 367 kts | 191° |
| 2026-05-04 17:36 | 26.78112 | 50.97399 | 11885 ft | 367 kts | 191° |
| 2026-05-04 17:37 | 26.75588 | 50.96967 | 11441 ft | 369 kts | 191° |
| 2026-05-04 17:37 | 26.73032 | 50.96538 | 10697 ft | 375 kts | 191° |
| 2026-05-04 17:37 | 26.70451 | 50.96110 | 10229 ft | 369 kts | 191° |
| 2026-05-04 17:37 | 26.67983 | 50.95707 | 10016 ft | 348 kts | 191° |
| 2026-05-04 17:38 | 26.65650 | 50.95327 | 9833 ft | 329 kts | 191° |
| 2026-05-04 17:38 | 26.63433 | 50.94966 | 9478 ft | 318 kts | 191° |
| 2026-05-04 17:38 | 26.61269 | 50.94609 | 9066 ft | 312 kts | 191° |
| 2026-05-04 17:38 | 26.59172 | 50.94262 | 8939 ft | 308 kts | 191° |
| 2026-05-04 17:39 | 26.54861 | 50.93545 | 8309 ft | 316 kts | 191° |
| 2026-05-04 17:39 | 26.52693 | 50.93188 | 7931 ft | 315 kts | 191° |
| 2026-05-04 17:39 | 26.50528 | 50.92831 | 7550 ft | 313 kts | 191° |
| 2026-05-04 17:40 | 26.48378 | 50.92478 | 7176 ft | 311 kts | 191° |
| 2026-05-04 17:40 | 26.46241 | 50.92126 | 6788 ft | 310 kts | 191° |
| 2026-05-04 17:40 | 26.44111 | 50.91776 | 6403 ft | 309 kts | 191° |
| 2026-05-04 17:40 | 26.41990 | 50.91427 | 6026 ft | 307 kts | 191° |
| 2026-05-04 17:41 | 26.39883 | 50.91080 | 5648 ft | 305 kts | 191° |
| 2026-05-04 17:41 | 26.37814 | 50.90740 | 5515 ft | 294 kts | 191° |
| 2026-05-04 17:41 | 26.35820 | 50.90409 | 5315 ft | 286 kts | 191° |
| 2026-05-04 17:41 | 26.33875 | 50.90083 | 5063 ft | 278 kts | 191° |
| 2026-05-04 17:42 | 26.32001 | 50.89761 | 4835 ft | 266 kts | 191° |
| 2026-05-04 17:42 | 26.30213 | 50.89455 | 4584 ft | 254 kts | 191° |
| 2026-05-04 17:42 | 26.28476 | 50.89285 | 4339 ft | 252 kts | 175° |
| 2026-05-04 17:42 | 26.26725 | 50.89523 | 4100 ft | 254 kts | 173° |
| 2026-05-04 17:43 | 26.24977 | 50.89785 | 3879 ft | 253 kts | 173° |
| 2026-05-04 17:43 | 26.23254 | 50.90032 | 3624 ft | 245 kts | 173° |
| 2026-05-04 17:43 | 26.21587 | 50.90228 | 3383 ft | 236 kts | 182° |
| 2026-05-04 17:43 | 26.20071 | 50.89766 | 3198 ft | 218 kts | 211° |
| 2026-05-04 17:44 | 26.18780 | 50.88965 | 3014 ft | 211 kts | 213° |
| 2026-05-04 17:44 | 26.17503 | 50.88155 | 2773 ft | 211 kts | 215° |
| 2026-05-04 17:44 | 26.16534 | 50.87018 | 2543 ft | 202 kts | 250° |
| 2026-05-04 17:44 | 26.16323 | 50.85521 | 2317 ft | 192 kts | 285° |
| 2026-05-04 17:45 | 26.16719 | 50.84136 | 2090 ft | 188 kts | 295° |
| 2026-05-04 17:45 | 26.17150 | 50.82767 | 1998 ft | 185 kts | 294° |
| 2026-05-04 17:45 | 26.17540 | 50.81483 | 1990 ft | 166 kts | 294° |
| 2026-05-04 17:45 | 26.17906 | 50.80275 | 2000 ft | 168 kts | 295° |
| 2026-05-04 17:46 | 26.18267 | 50.79091 | 1992 ft | 155 kts | 295° |
| 2026-05-04 17:46 | 26.18662 | 50.77966 | 2004 ft | 165 kts | 303° |
| 2026-05-04 17:46 | 26.19065 | 50.77221 | 2003 ft | 172 kts | 308° |
| 2026-05-04 17:46 | 26.19728 | 50.76142 | 1964 ft | 164 kts | 309° |
| 2026-05-04 17:47 | 26.20308 | 50.75123 | 1884 ft | 147 kts | 308° |
| 2026-05-04 17:47 | 26.20987 | 50.73940 | 1713 ft | 130 kts | 309° |
| 2026-05-04 17:47 | 26.21495 | 50.73068 | 1626 ft | 138 kts | 308° |
| 2026-05-04 17:47 | 26.22004 | 50.72179 | 1472 ft | 135 kts | 308° |
| 2026-05-04 17:48 | 26.22344 | 50.71589 | 1368 ft | 134 kts | 308° |
| 2026-05-04 17:48 | 26.22846 | 50.70717 | 1209 ft | 134 kts | 308° |
| 2026-05-04 17:48 | 26.23337 | 50.69866 | 1081 ft | 131 kts | 307° |
| 2026-05-04 17:48 | 26.23833 | 50.68991 | 1004 ft | 133 kts | 306° |
| 2026-05-04 17:49 | 26.24321 | 50.68111 | 914 ft | 134 kts | 306° |
| 2026-05-04 17:49 | 26.24826 | 50.67253 | 781 ft | 131 kts | 307° |
| 2026-05-04 17:49 | 26.25337 | 50.66412 | 573 ft | 129 kts | 306° |
| 2026-05-04 17:49 | 26.25823 | 50.65582 | 365 ft | 128 kts | 303° |
| 2026-05-04 17:50 | 26.26306 | 50.64734 | 91 ft | 132 kts | 302° |
| 2026-05-04 17:50 | 26.26790 | 50.63891 | 17 ft | 122 kts | 302° |
| 2026-05-04 17:50 | 26.27136 | 50.63271 | 14 ft | 68 kts | 302° |
| 2026-05-04 17:50 | 26.27251 | 50.62953 | 16 ft | 27 kts | 272° |
| 2026-05-04 17:51 | 26.27230 | 50.62841 | 18 ft | 9 kts | 216° |
| 2026-05-04 17:51 | 26.27198 | 50.62841 | 19 ft | 2 kts | 155° |
| 2026-05-04 17:51 | 26.27170 | 50.62873 | 20 ft | 7 kts | 129° |
| 2026-05-04 17:51 | 26.27107 | 50.62904 | 22 ft | 12 kts | 196° |
| 2026-05-04 17:52 | 26.27086 | 50.62892 | 22 ft | 0 kts | 211° |
| 2026-05-04 17:52 | 26.27057 | 50.62886 | 22 ft | 9 kts | 173° |
| 2026-05-04 17:53 | 26.27027 | 50.62902 | 21 ft | 0 kts | 135° |
| 2026-05-04 17:53 | 26.27018 | 50.62916 | 21 ft | 8 kts | 126° |
| 2026-05-04 17:53 | 26.27002 | 50.62941 | 22 ft | 0 kts | 125° |
| 2026-05-04 17:54 | 26.26994 | 50.62955 | 21 ft | 0 kts | 124° |
| 2026-05-04 17:54 | 26.26991 | 50.62959 | 21 ft | 0 kts | 124° |
| 2026-05-04 17:56 | 26.26991 | 50.62960 | 21 ft | 1 kts | 124° |
| 2026-05-04 17:56 | 26.26978 | 50.62981 | 21 ft | 0 kts | 123° |
| 2026-05-04 17:56 | 26.26976 | 50.62985 | 21 ft | 0 kts | 122° |
| 2026-05-04 17:57 | 26.26966 | 50.63003 | 23 ft | 9 kts | 122° |
| 2026-05-04 17:57 | 26.26911 | 50.63030 | 20 ft | 12 kts | 195° |
| 2026-05-04 17:57 | 26.26869 | 50.63003 | 20 ft | 4 kts | 213° |
| 2026-05-04 17:57 | 26.26851 | 50.62990 | 22 ft | 5 kts | 214° |
| 2026-05-04 17:58 | 26.26847 | 50.62987 | 21 ft | 0 kts | 214° |